ABJ weather

Port Bouet Airport
Abidjan, Lagunes, Côte d'Ivoire

Public forecast

Using degrees Celsius for public forecast. Weather courtesy of forecast.io.

Current aviation weather report (METAR) for Port Bouet Airport

Retrieved 2019/12/12 03:30 UTC (0 seconds ago):

DIAP 120330Z 03003KT 8000 NSC 24/24 Q1009 TEMPO 4000 BR

Aviation forecast (TAF) for Port Bouet Airport

Retrieved 2019-12-12 00:21 UTC (3 hours ago):

TAF TAF DIAP 112310Z 1200/1306 VRB02KT 8000 FEW015 TEMPO 1202/1208 3500 BR BKN008 PROB40 TEMPO 1203/1207 0500 FG BECMG 1208/1209 BKN011 BECMG 1210/1211 21010KT TEMPO 1215/1219 TS BKN012 FEW020CB